createdAt,value
2019-05-13T00:01:26.645Z,99.90
2019-05-13T00:03:56.364Z,99.90
2019-05-13T00:06:26.111Z,99.90
2019-05-13T00:08:55.793Z,99.90
2019-05-13T00:11:25.565Z,99.90
2019-05-13T00:13:55.134Z,99.90
2019-05-13T00:16:24.765Z,99.90
2019-05-13T00:18:55.376Z,99.90
2019-05-13T00:21:25.034Z,99.90
2019-05-13T00:23:54.670Z,99.90
2019-05-13T00:26:24.538Z,99.90
2019-05-13T00:28:54.387Z,99.90
2019-05-13T00:31:24.261Z,99.90
2019-05-13T00:33:53.278Z,99.90
2019-05-13T00:36:24.287Z,99.90
2019-05-13T00:38:55.140Z,99.50
2019-05-13T00:41:24.776Z,99.00
2019-05-13T00:43:54.446Z,99.90
2019-05-13T00:46:24.215Z,99.90
2019-05-13T00:48:54.201Z,99.90
2019-05-13T00:51:24.375Z,99.90
2019-05-13T00:53:56.668Z,99.90
2019-05-13T00:56:26.418Z,99.90
2019-05-13T00:58:56.189Z,99.90
2019-05-13T01:01:25.824Z,99.90
2019-05-13T01:03:57.004Z,99.90
2019-05-13T01:06:26.530Z,99.90
2019-05-13T01:08:56.257Z,99.90
2019-05-13T01:11:25.870Z,99.90
2019-05-13T01:13:55.539Z,99.90
2019-05-13T01:16:25.174Z,99.90
2019-05-13T01:18:54.020Z,99.90
2019-05-13T01:21:24.032Z,99.90
2019-05-13T01:23:54.317Z,99.90
2019-05-13T01:26:24.147Z,99.90
2019-05-13T01:28:53.827Z,99.90
2019-05-13T01:31:23.997Z,99.90
2019-05-13T01:33:53.849Z,99.90
2019-05-13T01:36:23.603Z,99.90
2019-05-13T01:38:54.071Z,99.90
2019-05-13T01:41:24.124Z,99.90
2019-05-13T01:43:54.349Z,99.90
2019-05-13T01:46:24.235Z,99.90
2019-05-13T01:48:54.871Z,99.90
2019-05-13T01:51:24.596Z,99.90
2019-05-13T01:53:55.852Z,99.90
2019-05-13T01:56:25.478Z,99.90
2019-05-13T01:58:55.093Z,99.90
2019-05-13T02:01:24.707Z,99.90
2019-05-13T02:03:54.606Z,99.90
2019-05-13T02:06:24.289Z,99.90
2019-05-13T02:08:54.504Z,99.90
2019-05-13T02:11:25.349Z,99.90
2019-05-13T02:13:55.123Z,99.90
2019-05-13T02:16:24.736Z,99.90
2019-05-13T02:18:54.580Z,99.90
2019-05-13T02:21:24.340Z,99.90
2019-05-13T02:23:55.147Z,99.90
2019-05-13T02:26:24.832Z,99.50
2019-05-13T02:28:54.535Z,99.90
2019-05-13T02:31:39.090Z,99.90
2019-05-13T02:33:56.529Z,99.90
2019-05-13T02:36:26.161Z,98.00
2019-05-13T02:38:55.797Z,97.20
2019-05-13T02:41:26.798Z,99.20
2019-05-13T02:43:56.577Z,98.80
2019-05-13T02:46:26.309Z,99.30
2019-05-13T02:48:56.006Z,99.90
2019-05-13T02:51:25.546Z,99.90
2019-05-13T02:53:55.240Z,99.90
2019-05-13T02:56:25.042Z,99.90
2019-05-13T02:58:54.753Z,99.90
2019-05-13T03:01:24.490Z,99.90
2019-05-13T03:03:54.157Z,99.90
2019-05-13T03:06:23.835Z,99.90
2019-05-13T03:08:54.562Z,99.90
2019-05-13T03:11:24.768Z,99.90
2019-05-13T03:13:53.718Z,99.90
2019-05-13T03:16:24.965Z,99.90
2019-05-13T03:18:54.584Z,99.90
2019-05-13T03:21:26.869Z,99.90
2019-05-13T03:23:56.685Z,99.90
2019-05-13T03:26:26.239Z,99.90
2019-05-13T03:28:55.993Z,99.90
2019-05-13T03:31:26.786Z,99.90
2019-05-13T03:33:56.984Z,99.90
2019-05-13T03:36:26.739Z,99.90
2019-05-13T03:39:05.792Z,99.90
2019-05-13T03:41:32.922Z,99.90
2019-05-13T03:44:05.806Z,99.90
2019-05-13T03:46:38.475Z,99.90
2019-05-13T03:49:13.751Z,99.90
2019-05-13T03:51:43.005Z,99.90
2019-05-13T03:54:14.343Z,99.90
2019-05-13T03:56:44.158Z,99.90
2019-05-13T03:59:13.860Z,99.90
2019-05-13T04:01:43.694Z,99.90
2019-05-13T04:04:13.388Z,99.90
2019-05-13T04:06:43.163Z,99.90
2019-05-13T04:09:22.433Z,99.90
2019-05-13T04:11:44.493Z,99.90
2019-05-13T04:14:13.608Z,99.90
2019-05-13T04:16:43.472Z,99.90
2019-05-13T04:19:13.396Z,99.90
2019-05-13T04:21:43.147Z,99.90
2019-05-13T04:24:12.881Z,99.90
2019-05-13T04:26:43.369Z,99.90
2019-05-13T04:29:13.565Z,99.90
2019-05-13T04:31:43.473Z,99.90
2019-05-13T04:34:13.145Z,99.90
2019-05-13T04:36:43.256Z,99.90
2019-05-13T04:39:13.258Z,99.90
2019-05-13T04:41:42.569Z,99.90
2019-05-13T04:44:13.129Z,99.90
2019-05-13T04:46:43.580Z,99.90
2019-05-13T04:49:14.829Z,99.90
2019-05-13T04:51:44.664Z,99.90
2019-05-13T04:54:14.538Z,99.90
2019-05-13T04:56:47.090Z,99.90
2019-05-13T04:59:17.055Z,99.90
2019-05-13T05:01:55.320Z,99.90
2019-05-13T05:04:34.849Z,99.90
2019-05-13T05:07:14.203Z,99.90
2019-05-13T05:10:21.306Z,99.90
2019-05-13T05:13:07.648Z,99.90
2019-05-13T05:15:52.436Z,99.90
2019-05-13T05:18:58.183Z,99.90
2019-05-13T05:21:42.817Z,99.90
2019-05-13T05:24:33.584Z,99.90
2019-05-13T05:27:33.425Z,99.90
2019-05-13T05:30:28.716Z,99.90
2019-05-13T05:33:32.836Z,99.90
2019-05-13T05:36:27.427Z,99.90
2019-05-13T05:39:08.938Z,99.90
2019-05-13T05:41:42.213Z,99.90
2019-05-13T05:44:13.562Z,99.90
2019-05-13T05:46:43.379Z,99.60
2019-05-13T05:49:14.871Z,99.10
2019-05-13T05:51:46.614Z,99.90
2019-05-13T05:54:21.667Z,99.90
2019-05-13T05:56:53.861Z,98.80
2019-05-13T05:59:25.975Z,99.70
2019-05-13T06:01:58.270Z,99.90
2019-05-13T06:04:32.495Z,99.10
2019-05-13T06:07:03.608Z,99.70
2019-05-13T06:09:39.227Z,99.90
2019-05-13T06:12:09.053Z,99.90
2019-05-13T06:14:42.116Z,99.90
2019-05-13T06:17:11.587Z,99.90
2019-05-13T06:19:41.843Z,99.90
2019-05-13T06:22:13.582Z,99.90
2019-05-13T06:24:46.106Z,99.90
2019-05-13T06:27:17.405Z,99.90
2019-05-13T06:29:49.322Z,99.90
2019-05-13T06:32:23.576Z,97.60
2019-05-13T06:34:52.453Z,99.40
2019-05-13T06:37:22.118Z,99.70
2019-05-13T06:39:51.922Z,99.90
2019-05-13T06:42:22.221Z,99.90
2019-05-13T06:44:53.191Z,99.70
2019-05-13T06:47:22.906Z,99.50
2019-05-13T06:49:52.698Z,99.90
2019-05-13T06:52:22.471Z,99.90
2019-05-13T06:54:52.224Z,99.90
2019-05-13T06:57:22.911Z,99.90
2019-05-13T06:59:52.627Z,99.90
2019-05-13T07:02:22.395Z,99.90
2019-05-13T07:04:51.778Z,99.90
2019-05-13T07:07:22.066Z,99.50
2019-05-13T07:09:51.953Z,98.40
2019-05-13T07:12:21.921Z,98.90
2019-05-13T07:14:51.955Z,99.50
2019-05-13T07:17:22.482Z,99.90
2019-05-13T07:19:53.604Z,99.90
2019-05-13T07:22:23.347Z,99.60
2019-05-13T07:24:54.066Z,98.40
2019-05-13T07:27:23.148Z,98.80
2019-05-13T07:29:55.524Z,98.40
2019-05-13T07:32:24.354Z,98.30
2019-05-13T07:34:57.632Z,97.40
2019-05-13T07:37:28.680Z,94.10
2019-05-13T07:40:02.532Z,96.70
2019-05-13T07:42:32.663Z,97.40
2019-05-13T07:45:02.404Z,95.50
2019-05-13T07:47:35.015Z,96.00
2019-05-13T07:50:05.143Z,94.70
2019-05-13T07:52:36.827Z,96.40
2019-05-13T07:55:05.850Z,96.80
2019-05-13T07:57:35.462Z,96.30
2019-05-13T08:00:06.746Z,94.30
2019-05-13T08:02:36.617Z,95.40
2019-05-13T08:05:12.028Z,92.00
2019-05-13T08:07:44.050Z,93.20
2019-05-13T08:10:13.875Z,92.20
2019-05-13T08:12:43.607Z,91.50
2019-05-13T08:15:12.772Z,93.80
2019-05-13T08:17:47.355Z,91.40
2019-05-13T08:20:14.295Z,93.50
2019-05-13T08:22:44.002Z,91.60
2019-05-13T08:25:14.017Z,90.60
2019-05-13T08:27:43.679Z,92.70
2019-05-13T08:30:13.730Z,79.90
2019-05-13T08:32:43.283Z,86.30
2019-05-13T08:35:15.039Z,84.60
2019-05-13T08:37:47.318Z,80.00
2019-05-13T08:40:20.405Z,85.70
2019-05-13T08:42:51.957Z,77.50
2019-05-13T08:45:27.893Z,69.70
2019-05-13T08:47:52.839Z,86.40
2019-05-13T08:50:24.249Z,83.80
2019-05-13T08:52:54.141Z,76.60
2019-05-13T08:55:25.543Z,82.60
2019-05-13T08:57:55.377Z,85.90
2019-05-13T09:00:47.536Z,83.80
2019-05-13T09:03:21.275Z,82.70
2019-05-13T09:05:52.192Z,82.00
2019-05-13T09:08:24.057Z,83.00
2019-05-13T09:10:56.778Z,81.80
2019-05-13T09:13:25.337Z,65.20
2019-05-13T09:15:55.208Z,73.50
2019-05-13T09:18:24.913Z,75.70
2019-05-13T09:20:56.129Z,77.30
2019-05-13T09:23:27.223Z,79.60
2019-05-13T09:26:02.665Z,65.60
2019-05-13T09:28:38.233Z,72.90
2019-05-13T09:31:03.656Z,79.20
2019-05-13T09:33:33.400Z,71.40
2019-05-13T09:36:06.460Z,76.80
2019-05-13T09:38:37.737Z,80.80
2019-05-13T09:41:07.557Z,74.20
2019-05-13T09:43:42.001Z,79.10
2019-05-13T09:46:11.964Z,69.00
2019-05-13T09:51:15.815Z,77.90
2019-05-13T09:53:47.974Z,78.40
2019-05-13T09:56:19.489Z,74.40
2019-05-13T09:58:51.339Z,69.50
2019-05-13T10:01:22.539Z,73.60
2019-05-13T10:03:57.166Z,70.90
2019-05-13T10:06:25.707Z,65.60
2019-05-13T10:09:02.225Z,64.50
2019-05-13T10:11:32.059Z,59.70
2019-05-13T10:14:03.407Z,60.80
2019-05-13T10:16:37.172Z,60.80
2019-05-13T10:19:08.020Z,63.60
2019-05-13T10:21:41.400Z,74.00
2019-05-13T10:24:12.355Z,61.10
2019-05-13T10:26:45.970Z,70.20
2019-05-13T10:29:17.639Z,59.40
2019-05-13T10:31:51.599Z,64.70
2019-05-13T10:34:23.801Z,63.20
2019-05-13T10:36:53.881Z,66.10
2019-05-13T10:39:25.327Z,64.00
2019-05-13T10:41:56.805Z,62.20
2019-05-13T10:44:30.538Z,72.40
2019-05-13T10:47:02.526Z,70.10
2019-05-13T10:49:35.752Z,75.40
2019-05-13T10:52:05.651Z,67.80
2019-05-13T10:54:35.464Z,57.50
2019-05-13T10:57:06.855Z,66.70
2019-05-13T10:59:38.219Z,61.70
2019-05-13T11:02:07.925Z,68.90
2019-05-13T11:04:36.891Z,72.50
2019-05-13T11:07:13.069Z,68.90
2019-05-13T11:09:38.179Z,76.30
2019-05-13T11:12:08.153Z,73.60
2019-05-13T11:14:38.882Z,75.60
2019-05-13T11:17:13.181Z,74.40
2019-05-13T11:19:41.676Z,65.10
2019-05-13T11:22:12.275Z,70.40
2019-05-13T11:24:43.174Z,63.90
2019-05-13T11:27:13.296Z,67.00
2019-05-13T11:29:46.853Z,70.50
2019-05-13T11:32:19.007Z,68.20
2019-05-13T11:34:53.034Z,63.20
2019-05-13T11:37:26.215Z,65.10
2019-05-13T11:39:56.160Z,66.30
2019-05-13T11:42:28.046Z,65.50
2019-05-13T11:44:57.491Z,59.30
2019-05-13T11:47:28.337Z,57.20
2019-05-13T11:49:58.175Z,63.90
2019-05-13T11:52:31.536Z,59.10
2019-05-13T11:55:02.576Z,63.10
2019-05-13T11:57:32.913Z,60.70
2019-05-13T12:00:02.939Z,62.60
2019-05-13T12:02:32.885Z,61.90
2019-05-13T12:05:04.367Z,70.90
2019-05-13T12:07:34.229Z,72.40
2019-05-13T12:10:12.454Z,72.20
2019-05-13T12:12:44.553Z,71.00
2019-05-13T12:15:28.873Z,71.00
2019-05-13T12:17:44.535Z,71.00
2019-05-13T12:20:14.502Z,74.60
2019-05-13T12:22:44.538Z,78.30
2019-05-13T12:25:14.104Z,75.00
2019-05-13T12:27:43.898Z,78.50
2019-05-13T12:30:13.837Z,71.30
2019-05-13T12:32:43.938Z,66.80
2019-05-13T12:35:16.304Z,75.30
2019-05-13T12:37:46.066Z,79.60
2019-05-13T12:40:17.580Z,71.10
2019-05-13T12:42:47.470Z,65.40
2019-05-13T12:45:17.517Z,75.10
2019-05-13T12:47:47.320Z,78.30
2019-05-13T12:50:16.609Z,69.20
2019-05-13T12:52:46.299Z,72.30
2019-05-13T12:55:17.587Z,72.90
2019-05-13T12:57:46.520Z,78.80
2019-05-13T13:00:16.904Z,78.10
2019-05-13T13:02:51.506Z,81.70
2019-05-13T13:05:21.320Z,77.00
2019-05-13T13:08:13.540Z,81.50
2019-05-13T13:10:23.990Z,75.50
2019-05-13T13:12:54.926Z,81.70
2019-05-13T13:15:41.229Z,82.90
2019-05-13T13:17:58.405Z,81.70
2019-05-13T13:20:27.406Z,83.60
2019-05-13T13:22:58.596Z,87.00
2019-05-13T13:25:33.592Z,85.00
2019-05-13T13:28:11.138Z,85.10
2019-05-13T13:30:37.251Z,87.10
2019-05-13T13:33:07.068Z,81.00
2019-05-13T13:35:36.896Z,86.00
2019-05-13T13:38:08.846Z,83.80
2019-05-13T13:40:38.452Z,87.00
2019-05-13T13:43:08.336Z,87.10
2019-05-13T13:46:06.773Z,84.40
2019-05-13T13:48:15.277Z,86.10
2019-05-13T13:50:45.063Z,87.80
2019-05-13T13:53:14.809Z,83.30
2019-05-13T13:55:44.965Z,86.90
2019-05-13T13:58:16.351Z,90.10
2019-05-13T14:01:00.757Z,88.40
2019-05-13T14:03:19.112Z,87.10
2019-05-13T14:05:53.551Z,86.60
2019-05-13T14:06:59.604Z,74.40
2019-05-13T14:08:23.060Z,82.10
2019-05-13T14:10:53.395Z,90.60
2019-05-13T14:13:23.035Z,75.50
2019-05-13T14:15:52.987Z,84.90
2019-05-13T14:18:26.585Z,86.90
2019-05-13T14:20:55.637Z,86.00
2019-05-13T14:23:26.508Z,76.60
2019-05-13T14:25:56.384Z,79.20
2019-05-13T14:28:25.396Z,81.80
2019-05-13T14:30:56.374Z,86.20
2019-05-13T14:33:26.092Z,86.60
2019-05-13T14:35:57.491Z,88.50
2019-05-13T14:38:27.258Z,88.10
2019-05-13T14:40:58.497Z,83.30
2019-05-13T14:43:28.522Z,83.00
2019-05-13T14:45:58.156Z,78.20
2019-05-13T14:48:27.780Z,86.10
2019-05-13T14:50:59.043Z,82.10
2019-05-13T14:53:28.878Z,72.20
2019-05-13T14:55:57.861Z,76.60
2019-05-13T14:58:27.519Z,75.50
2019-05-13T15:01:14.947Z,75.30
2019-05-13T15:03:32.724Z,73.70
2019-05-13T15:06:03.167Z,77.60
2019-05-13T15:08:32.977Z,82.80
2019-05-13T15:11:02.761Z,84.00
2019-05-13T15:13:32.537Z,81.80
2019-05-13T15:16:02.342Z,81.50
2019-05-13T15:18:32.837Z,82.60
2019-05-13T15:21:03.248Z,87.30
2019-05-13T15:23:32.090Z,81.60
2019-05-13T15:26:02.444Z,87.50
2019-05-13T15:28:32.451Z,90.90
2019-05-13T15:31:10.888Z,90.70
2019-05-13T15:33:41.574Z,75.30
2019-05-13T15:45:39.640Z,78.40
2019-05-13T15:48:15.276Z,80.50
2019-05-13T15:51:05.597Z,87.30
2019-05-13T15:56:46.306Z,89.80
2019-05-13T15:59:25.613Z,87.10
2019-05-13T16:02:01.251Z,84.20
2019-05-13T16:04:47.787Z,85.30
2019-05-13T16:07:12.355Z,89.10
2019-05-13T16:09:44.884Z,91.40
2019-05-13T16:12:24.258Z,91.60
2019-05-13T16:14:57.935Z,90.70
2019-05-13T16:17:40.935Z,85.70
2019-05-13T16:20:02.459Z,88.90
2019-05-13T16:22:52.674Z,86.40
2019-05-13T16:25:25.974Z,88.70
2019-05-13T16:28:01.386Z,93.30
2019-05-13T16:30:32.574Z,93.20
2019-05-13T16:33:03.946Z,87.80
2019-05-13T16:35:33.822Z,87.00
2019-05-13T16:38:04.716Z,92.80
2019-05-13T16:40:36.692Z,92.90
2019-05-13T16:43:12.626Z,93.10
2019-05-13T16:45:42.983Z,92.70
2019-05-13T16:48:18.451Z,92.80
2019-05-13T16:51:00.272Z,94.80
2019-05-13T16:53:35.039Z,95.70
2019-05-13T16:56:08.050Z,95.90
2019-05-13T16:58:41.584Z,96.50
2019-05-13T17:01:11.481Z,96.40
2019-05-13T17:03:41.502Z,96.30
2019-05-13T17:06:13.171Z,96.50
2019-05-13T17:11:21.072Z,96.80
2019-05-13T17:13:52.318Z,95.60
2019-05-13T17:16:21.986Z,96.90
2019-05-13T17:18:57.124Z,97.50
2019-05-13T17:21:31.684Z,97.80
2019-05-13T17:24:03.129Z,97.80
2019-05-13T17:26:32.905Z,97.70
2019-05-13T17:29:02.638Z,97.70
2019-05-13T17:31:33.905Z,97.80
2019-05-13T17:34:05.040Z,98.10
2019-05-13T17:36:51.889Z,98.10
2019-05-13T17:40:01.471Z,98.10
2019-05-13T17:42:41.271Z,98.30
2019-05-13T17:47:01.537Z,98.30
2019-05-13T17:48:07.976Z,98.30
2019-05-13T17:51:46.656Z,98.30
2019-05-13T17:56:21.612Z,97.00
2019-05-13T18:04:41.588Z,98.80
2019-05-13T18:07:17.370Z,99.10
2019-05-13T18:09:51.925Z,99.20
2019-05-13T18:12:24.738Z,99.10
2019-05-13T18:15:22.092Z,99.30
2019-05-13T18:17:45.229Z,98.90
2019-05-13T18:36:12.208Z,99.00
2019-05-13T18:38:42.428Z,99.10
2019-05-13T18:41:11.975Z,99.20
2019-05-13T18:43:41.885Z,99.30
2019-05-13T18:46:35.204Z,99.50
2019-05-13T18:49:08.508Z,99.50
2019-05-13T18:51:38.255Z,99.30
2019-05-13T18:54:07.273Z,99.00
2019-05-13T18:56:41.394Z,98.90
2019-05-13T18:59:08.579Z,99.20
2019-05-13T19:01:37.540Z,99.10
2019-05-13T19:04:07.337Z,98.50
2019-05-13T19:06:38.700Z,98.50
2019-05-13T19:09:11.211Z,99.00
2019-05-13T19:11:43.198Z,99.10
2019-05-13T19:14:14.170Z,99.50
2019-05-13T19:16:44.139Z,99.50
2019-05-13T19:19:16.959Z,99.60
2019-05-13T19:21:51.139Z,99.30
2019-05-13T19:24:22.698Z,99.00
2019-05-13T19:27:12.449Z,99.10
2019-05-13T19:29:34.520Z,99.40
2019-05-13T19:32:07.771Z,99.20
2019-05-13T19:34:42.145Z,98.60
2019-05-13T19:37:17.433Z,99.00
2019-05-13T19:39:48.683Z,98.70
2019-05-13T19:42:22.139Z,98.20
2019-05-13T19:44:55.804Z,97.80
2019-05-13T19:47:25.555Z,98.30
2019-05-13T19:49:56.978Z,98.90
2019-05-13T19:52:27.375Z,99.20
2019-05-13T19:57:51.726Z,99.30
2019-05-13T20:00:23.673Z,98.50
2019-05-13T20:03:01.652Z,99.30
2019-05-13T20:08:47.526Z,98.30
2019-05-13T20:11:33.398Z,98.70
2019-05-13T20:14:03.374Z,99.00
2019-05-13T20:16:32.338Z,99.00
2019-05-13T20:19:12.023Z,99.30
2019-05-13T20:21:47.478Z,99.60
2019-05-13T20:24:25.751Z,99.80
2019-05-13T20:27:01.330Z,99.80
2019-05-13T20:29:30.526Z,99.80
2019-05-13T20:32:01.990Z,99.90
2019-05-13T20:34:33.269Z,99.90
2019-05-13T20:37:03.097Z,99.90
2019-05-13T20:39:32.184Z,99.90
2019-05-13T20:42:02.001Z,99.90
2019-05-13T20:44:33.817Z,99.90
2019-05-13T20:47:09.876Z,99.90
2019-05-13T20:49:41.780Z,99.90
2019-05-13T20:52:22.109Z,99.90
2019-05-13T20:54:52.060Z,99.90
2019-05-13T20:57:27.503Z,99.90
2019-05-13T20:59:58.141Z,99.90
2019-05-13T21:02:28.109Z,99.90
2019-05-13T21:04:57.885Z,99.90
2019-05-13T21:07:27.768Z,99.90
2019-05-13T21:09:56.790Z,99.90
2019-05-13T21:12:28.056Z,99.30
2019-05-13T21:15:15.366Z,99.20
2019-05-13T21:20:45.279Z,99.60
2019-05-13T21:23:08.473Z,99.90
2019-05-13T21:25:41.758Z,99.90
2019-05-13T21:28:21.828Z,99.90
2019-05-13T21:30:53.101Z,99.90
2019-05-13T21:33:31.391Z,99.90
2019-05-13T21:36:05.312Z,99.90
2019-05-13T21:38:36.668Z,99.90
2019-05-13T21:41:07.031Z,99.90
2019-05-13T21:43:43.625Z,99.90
2019-05-13T21:46:13.551Z,99.90
2019-05-13T21:48:46.286Z,99.90
2019-05-13T21:51:23.639Z,99.90
2019-05-13T21:53:53.390Z,99.90
2019-05-13T21:56:27.733Z,99.90
2019-05-13T21:59:03.307Z,99.90
2019-05-13T22:01:36.601Z,99.90
2019-05-13T22:04:12.145Z,99.90
2019-05-13T22:06:43.718Z,99.90
2019-05-13T22:09:19.411Z,99.90
2019-05-13T22:11:56.073Z,99.90
2019-05-13T22:14:28.805Z,99.90
2019-05-13T22:17:01.489Z,99.90
2019-05-13T22:19:33.282Z,99.90
2019-05-13T22:22:03.175Z,99.90
2019-05-13T22:24:34.536Z,99.90
2019-05-13T22:27:13.253Z,99.90
2019-05-13T22:32:46.000Z,99.90
2019-05-13T22:35:01.908Z,99.90
2019-05-13T22:37:36.389Z,99.90
2019-05-13T22:40:11.289Z,99.90
2019-05-13T22:42:43.037Z,99.90
2019-05-13T22:45:21.837Z,99.90
2019-05-13T22:47:52.046Z,99.90
2019-05-13T22:50:28.064Z,99.90
2019-05-13T22:53:04.550Z,99.90
2019-05-13T22:55:35.449Z,99.90
2019-05-13T22:58:07.908Z,99.90
2019-05-13T23:00:43.196Z,99.90
2019-05-13T23:03:21.297Z,99.90
2019-05-13T23:05:52.760Z,99.90
2019-05-13T23:08:25.676Z,99.90
2019-05-13T23:10:56.892Z,99.90
2019-05-13T23:13:26.696Z,99.90
2019-05-13T23:16:02.090Z,99.90
2019-05-13T23:18:34.677Z,99.90
2019-05-13T23:21:13.858Z,99.90
2019-05-13T23:23:44.398Z,99.90
2019-05-13T23:26:18.361Z,99.90
2019-05-13T23:28:53.354Z,99.90
2019-05-13T23:31:26.171Z,99.90
2019-05-13T23:34:02.028Z,99.90
2019-05-13T23:36:36.587Z,99.90
2019-05-13T23:39:11.755Z,99.90
2019-05-13T23:41:46.391Z,99.90
2019-05-13T23:44:24.976Z,99.90
2019-05-13T23:46:55.169Z,99.90
2019-05-13T23:49:25.845Z,99.90
2019-05-13T23:51:59.890Z,99.90
2019-05-13T23:54:31.598Z,99.90
2019-05-13T23:57:03.855Z,99.90
2019-05-13T23:59:41.873Z,99.90
